createdAt,value
2019-01-02T00:02:19.188Z,6.37
2019-01-02T00:04:50.730Z,4.93
2019-01-02T00:07:21.383Z,5.13
2019-01-02T00:09:51.183Z,5.30
2019-01-02T00:12:21.430Z,5.03
2019-01-02T00:14:51.366Z,2.90
2019-01-02T00:17:21.191Z,6.43
2019-01-02T00:19:52.009Z,5.27
2019-01-02T00:22:21.718Z,4.13
2019-01-02T00:24:51.966Z,2.73
2019-01-02T00:27:21.690Z,1.53
2019-01-02T00:29:52.114Z,3.30
2019-01-02T00:32:22.038Z,5.10
2019-01-02T00:34:51.848Z,4.93
2019-01-02T00:37:22.207Z,4.90
2019-01-02T00:39:51.993Z,5.53
2019-01-02T00:42:21.806Z,5.30
2019-01-02T00:44:53.603Z,7.93
2019-01-02T00:47:24.196Z,5.67
2019-01-02T00:49:54.049Z,3.97
2019-01-02T00:52:24.561Z,5.87
2019-01-02T00:54:54.705Z,2.77
2019-01-02T00:57:25.014Z,5.40
2019-01-02T00:59:54.778Z,6.33
2019-01-02T01:02:25.348Z,4.73
2019-01-02T01:04:55.834Z,6.53
2019-01-02T01:07:25.716Z,4.17
2019-01-02T01:09:55.496Z,4.00
2019-01-02T01:12:25.755Z,5.50
2019-01-02T01:14:55.818Z,6.87
2019-01-02T01:17:26.382Z,8.60
2019-01-02T01:19:56.218Z,6.67
2019-01-02T01:22:26.341Z,7.13
2019-01-02T01:24:56.440Z,8.27
2019-01-02T01:27:31.696Z,7.97
2019-01-02T01:30:02.024Z,4.40
2019-01-02T01:32:31.859Z,6.83
2019-01-02T01:35:01.650Z,6.57
2019-01-02T01:37:31.426Z,8.40
2019-01-02T01:40:01.511Z,11.63
2019-01-02T01:42:31.750Z,6.27
2019-01-02T01:45:02.070Z,7.87
2019-01-02T01:47:32.086Z,13.27
2019-01-02T01:50:02.095Z,7.83
2019-01-02T01:52:31.898Z,6.57
2019-01-02T01:55:01.704Z,9.43
2019-01-02T01:57:31.886Z,11.10
2019-01-02T02:00:01.650Z,11.77
2019-01-02T02:02:38.332Z,8.80
2019-01-02T02:05:10.223Z,13.50
2019-01-02T02:07:40.373Z,8.77
2019-01-02T02:10:12.879Z,10.63
2019-01-02T02:12:42.811Z,11.77
2019-01-02T02:15:15.663Z,10.60
2019-01-02T02:17:46.209Z,13.10
2019-01-02T02:20:16.254Z,8.43
2019-01-02T02:22:46.189Z,6.87
2019-01-02T02:25:20.923Z,7.70
2019-01-02T02:27:51.020Z,7.60
2019-01-02T02:30:21.213Z,9.43
2019-01-02T02:32:51.846Z,11.87
2019-01-02T02:35:21.900Z,14.13
2019-01-02T02:37:52.935Z,12.40
2019-01-02T02:40:22.876Z,14.10
2019-01-02T02:42:52.734Z,9.47
2019-01-02T02:45:22.987Z,10.47
2019-01-02T02:47:53.527Z,14.70
2019-01-02T02:50:23.704Z,11.30
2019-01-02T02:52:53.770Z,11.87
2019-01-02T02:55:26.602Z,10.77
2019-01-02T02:57:56.413Z,13.30
2019-01-02T03:00:26.413Z,12.17
2019-01-02T03:02:56.178Z,10.60
2019-01-02T03:05:26.315Z,8.20
2019-01-02T03:07:56.194Z,13.60
2019-01-02T03:10:26.266Z,8.70
2019-01-02T03:12:56.459Z,7.63
2019-01-02T03:15:26.668Z,8.10
2019-01-02T03:17:57.079Z,13.23
2019-01-02T03:20:26.902Z,8.27
2019-01-02T03:22:57.274Z,16.20
2019-01-02T03:25:27.581Z,7.70
2019-01-02T03:27:57.751Z,7.17
2019-01-02T03:30:27.821Z,12.67
2019-01-02T03:32:57.987Z,14.67
2019-01-02T03:35:27.974Z,12.17
2019-01-02T03:37:57.762Z,13.57
2019-01-02T03:40:27.559Z,8.63
2019-01-02T03:42:57.342Z,11.77
2019-01-02T03:45:27.132Z,9.27
2019-01-02T03:47:57.185Z,9.93
2019-01-02T03:50:27.050Z,13.40
2019-01-02T03:52:57.214Z,11.50
2019-01-02T03:55:27.036Z,8.47
2019-01-02T03:57:56.892Z,7.97
2019-01-02T04:00:26.751Z,10.13
2019-01-02T04:02:56.567Z,9.07
2019-01-02T04:05:27.375Z,8.57
2019-01-02T04:08:05.867Z,8.83
2019-01-02T04:10:35.642Z,9.50
2019-01-02T04:13:05.418Z,8.57
2019-01-02T04:15:35.510Z,12.53
2019-01-02T04:18:05.302Z,8.47
2019-01-02T04:20:35.427Z,9.47
2019-01-02T04:23:05.207Z,9.43
2019-01-02T04:25:34.978Z,7.93
2019-01-02T04:28:04.783Z,11.50
2019-01-02T04:30:34.966Z,10.73
2019-01-02T04:33:04.762Z,14.47
2019-01-02T04:35:35.350Z,10.30
2019-01-02T04:38:05.286Z,11.87
2019-01-02T04:40:35.326Z,8.97
2019-01-02T04:43:05.122Z,10.93
2019-01-02T04:45:34.997Z,16.13
2019-01-02T04:48:05.034Z,13.00
2019-01-02T04:50:35.007Z,15.40
2019-01-02T04:53:05.114Z,8.77
2019-01-02T04:55:34.934Z,7.77
2019-01-02T04:58:04.846Z,11.67
2019-01-02T05:00:34.929Z,10.10
2019-01-02T05:03:04.783Z,11.43
2019-01-02T05:05:35.015Z,8.10
2019-01-02T05:08:04.883Z,10.57
2019-01-02T05:10:34.578Z,11.10
2019-01-02T05:13:04.625Z,15.77
2019-01-02T05:15:34.710Z,14.57
2019-01-02T05:18:05.011Z,11.17
2019-01-02T05:20:37.918Z,10.23
2019-01-02T05:23:07.644Z,11.07
2019-01-02T05:25:37.843Z,13.13
2019-01-02T05:28:07.701Z,7.03
2019-01-02T05:30:37.798Z,9.17
2019-01-02T05:33:09.211Z,12.60
2019-01-02T05:35:39.014Z,15.70
2019-01-02T05:38:09.017Z,17.37
2019-01-02T05:40:38.883Z,13.33
2019-01-02T05:43:08.673Z,14.23
2019-01-02T05:45:39.580Z,13.07
2019-01-02T05:48:10.429Z,13.90
2019-01-02T05:50:40.350Z,10.70
2019-01-02T05:53:10.396Z,10.90
2019-01-02T05:55:40.292Z,13.27
2019-01-02T05:58:10.595Z,15.63
2019-01-02T06:00:40.435Z,11.40
2019-01-02T06:03:10.214Z,11.40
2019-01-02T06:05:40.145Z,13.17
2019-01-02T06:08:09.939Z,10.57
2019-01-02T06:10:39.807Z,15.10
2019-01-02T06:13:09.519Z,15.07
2019-01-02T06:15:39.802Z,14.80
2019-01-02T06:18:09.701Z,8.57
2019-01-02T06:20:39.454Z,12.87
2019-01-02T06:23:09.328Z,21.30
2019-01-02T06:25:39.370Z,13.90
2019-01-02T06:28:09.734Z,15.20
2019-01-02T06:30:39.514Z,13.20
2019-01-02T06:33:11.757Z,13.10
2019-01-02T06:35:41.503Z,19.07
2019-01-02T06:38:11.287Z,15.97
2019-01-02T06:40:41.098Z,15.83
2019-01-02T06:43:11.246Z,16.83
2019-01-02T06:45:41.251Z,13.90
2019-01-02T06:48:13.750Z,18.10
2019-01-02T06:50:43.911Z,15.67
2019-01-02T06:53:14.003Z,16.97
2019-01-02T06:55:44.087Z,13.80
2019-01-02T06:58:14.126Z,16.30
2019-01-02T07:00:44.579Z,16.43
2019-01-02T07:03:14.892Z,18.63
2019-01-02T07:05:46.982Z,18.97
2019-01-02T07:08:16.842Z,19.50
2019-01-02T07:10:47.114Z,19.57
2019-01-02T07:13:17.228Z,19.80
2019-01-02T07:15:47.746Z,19.07
2019-01-02T07:18:17.800Z,16.80
2019-01-02T07:20:48.107Z,21.50
2019-01-02T07:23:17.986Z,14.00
2019-01-02T07:25:47.802Z,12.77
2019-01-02T07:28:17.770Z,19.90
2019-01-02T07:30:47.888Z,17.90
2019-01-02T07:33:17.967Z,17.37
2019-01-02T07:36:07.499Z,15.90
2019-01-02T07:39:19.097Z,13.80
2019-01-02T07:42:22.834Z,20.20
2019-01-02T07:45:29.610Z,26.13
2019-01-02T07:48:39.537Z,16.00
2019-01-02T07:51:34.416Z,16.80
2019-01-02T07:55:03.744Z,14.17
2019-01-02T07:58:11.863Z,16.23
2019-01-02T08:01:35.688Z,20.87
2019-01-02T08:04:52.953Z,11.73
2019-01-02T08:08:05.715Z,14.07
2019-01-02T08:10:59.766Z,29.83
2019-01-02T08:13:53.204Z,21.43
2019-01-02T08:16:40.828Z,16.90
2019-01-02T08:19:37.323Z,20.77
2019-01-02T08:22:45.602Z,13.63
2019-01-02T08:25:27.811Z,13.60
2019-01-02T08:28:28.511Z,20.20
2019-01-02T08:31:23.582Z,15.63
2019-01-02T08:34:51.268Z,14.07
2019-01-02T08:37:46.914Z,18.70
2019-01-02T08:41:09.015Z,17.00
2019-01-02T08:44:27.164Z,22.40
2019-01-02T08:47:45.957Z,15.43
2019-01-02T08:50:56.955Z,18.53
2019-01-02T08:54:04.173Z,20.47
2019-01-02T08:57:33.380Z,16.80
2019-01-02T09:00:27.731Z,21.40
2019-01-02T09:03:35.026Z,47.23
2019-01-02T09:06:50.703Z,22.97
2019-01-02T09:09:57.355Z,18.77
2019-01-02T09:13:11.421Z,16.53
2019-01-02T09:16:14.900Z,19.87
2019-01-02T09:19:09.531Z,12.67
2019-01-02T09:22:14.587Z,22.23
2019-01-02T09:25:33.532Z,22.23
2019-01-02T09:28:35.085Z,16.33
2019-01-02T09:31:42.113Z,16.10
2019-01-02T09:34:27.075Z,17.87
2019-01-02T09:37:46.039Z,15.10
2019-01-02T09:40:43.840Z,16.03
2019-01-02T09:43:49.462Z,22.33
2019-01-02T09:46:58.150Z,19.70
2019-01-02T09:49:59.253Z,16.47
2019-01-02T09:53:02.182Z,21.63
2019-01-02T09:56:13.359Z,32.37
2019-01-02T09:59:20.345Z,38.63
2019-01-02T10:02:11.765Z,26.53
2019-01-02T10:05:37.864Z,17.60
2019-01-02T10:08:45.059Z,13.13
2019-01-02T10:12:11.603Z,16.80
2019-01-02T10:15:26.101Z,18.70
2019-01-02T10:18:27.459Z,14.23
2019-01-02T10:21:14.547Z,20.20
2019-01-02T10:24:28.250Z,14.00
2019-01-02T10:27:27.602Z,12.60
2019-01-02T10:30:52.575Z,14.43
2019-01-02T10:34:14.730Z,20.03
2019-01-02T10:37:22.566Z,24.47
2019-01-02T10:40:20.095Z,19.63
2019-01-02T10:43:14.026Z,20.97
2019-01-02T10:46:31.323Z,24.80
2019-01-02T10:49:40.851Z,25.10
2019-01-02T10:52:46.889Z,18.20
2019-01-02T10:55:50.349Z,24.70
2019-01-02T10:59:15.610Z,18.60
2019-01-02T11:02:27.778Z,20.20
2019-01-02T11:05:26.682Z,23.00
2019-01-02T11:08:21.494Z,19.63
2019-01-02T11:11:33.204Z,16.80
2019-01-02T11:14:17.586Z,15.67
2019-01-02T11:17:10.464Z,23.37
2019-01-02T11:20:32.106Z,22.90
2019-01-02T11:23:45.139Z,26.30
2019-01-02T11:27:11.737Z,21.67
2019-01-02T11:30:19.362Z,18.43
2019-01-02T11:33:28.039Z,20.37
2019-01-02T11:36:57.487Z,28.63
2019-01-02T11:40:07.299Z,18.23
2019-01-02T11:43:20.604Z,15.57
2019-01-02T11:45:50.286Z,21.47
2019-01-02T11:48:20.723Z,19.90
2019-01-02T11:50:50.698Z,17.90
2019-01-02T11:53:20.922Z,21.77
2019-01-02T11:55:50.737Z,14.17
2019-01-02T11:58:20.903Z,19.20
2019-01-02T12:00:50.801Z,16.93
2019-01-02T12:03:21.071Z,15.60
2019-01-02T12:05:51.456Z,21.00
2019-01-02T12:08:21.355Z,20.20
2019-01-02T12:10:51.122Z,25.03
2019-01-02T12:13:20.909Z,32.53
2019-01-02T12:15:50.751Z,49.77
2019-01-02T12:18:20.828Z,29.47
2019-01-02T12:20:50.631Z,21.67
2019-01-02T12:23:20.946Z,18.00
2019-01-02T12:25:50.895Z,19.67
2019-01-02T12:28:21.107Z,20.77
2019-01-02T12:30:50.854Z,21.80
2019-01-02T12:33:20.696Z,18.87
2019-01-02T12:35:50.728Z,18.67
2019-01-02T12:38:20.491Z,18.57
2019-01-02T12:40:50.287Z,17.47
2019-01-02T12:43:20.292Z,15.40
2019-01-02T12:45:50.007Z,17.03
2019-01-02T12:48:19.992Z,21.47
2019-01-02T12:50:49.981Z,22.87
2019-01-02T12:53:21.082Z,17.70
2019-01-02T12:55:50.861Z,23.03
2019-01-02T12:58:20.969Z,20.20
2019-01-02T13:00:59.347Z,18.87
2019-01-02T13:04:18.114Z,25.17
2019-01-02T13:07:31.409Z,16.70
2019-01-02T13:10:23.699Z,14.30
2019-01-02T13:13:29.538Z,26.30
2019-01-02T13:16:56.323Z,16.50
2019-01-02T13:19:54.966Z,32.07
2019-01-02T13:22:47.952Z,37.53
2019-01-02T13:26:01.050Z,19.23
2019-01-02T13:28:58.513Z,15.20
2019-01-02T13:32:11.626Z,13.40
2019-01-02T13:35:13.984Z,18.40
2019-01-02T13:38:30.949Z,21.93
2019-01-02T13:41:23.230Z,15.83
2019-01-02T13:44:13.726Z,11.83
2019-01-02T13:47:14.915Z,14.53
2019-01-02T13:49:57.001Z,15.23
2019-01-02T13:52:26.783Z,18.57
2019-01-02T13:55:00.221Z,23.17
2019-01-02T13:57:30.050Z,25.83
2019-01-02T14:00:00.005Z,18.97
2019-01-02T14:02:29.991Z,12.87
2019-01-02T14:05:00.293Z,21.70
2019-01-02T14:07:29.993Z,17.90
2019-01-02T14:09:59.727Z,22.80
2019-01-02T14:12:29.698Z,19.40
2019-01-02T14:14:59.782Z,22.63
2019-01-02T14:17:29.520Z,18.87
2019-01-02T14:19:59.474Z,28.93
2019-01-02T14:22:32.121Z,19.80
2019-01-02T14:25:02.013Z,19.30
2019-01-02T14:27:31.736Z,19.53
2019-01-02T14:30:01.621Z,18.67
2019-01-02T14:32:31.417Z,14.93
2019-01-02T14:35:01.583Z,21.83
2019-01-02T14:37:31.422Z,16.70
2019-01-02T14:40:01.620Z,16.47
2019-01-02T14:42:31.375Z,14.30
2019-01-02T14:45:01.346Z,19.53
2019-01-02T14:47:31.390Z,14.30
2019-01-02T14:50:06.455Z,19.10
2019-01-02T14:52:36.506Z,19.33
2019-01-02T14:55:06.572Z,18.13
2019-01-02T14:57:36.562Z,17.30
2019-01-02T15:00:10.075Z,16.87
2019-01-02T15:02:39.802Z,16.93
2019-01-02T15:05:09.658Z,14.53
2019-01-02T15:07:39.443Z,22.37
2019-01-02T15:10:12.719Z,12.77
2019-01-02T15:12:42.863Z,13.83
2019-01-02T15:15:12.838Z,13.37
2019-01-02T15:17:42.644Z,18.37
2019-01-02T15:20:12.866Z,10.27
2019-01-02T15:22:44.106Z,17.40
2019-01-02T15:25:14.200Z,12.47
2019-01-02T15:27:44.475Z,10.00
2019-01-02T15:30:14.434Z,14.03
2019-01-02T15:32:44.434Z,12.63
2019-01-02T15:35:15.121Z,15.90
2019-01-02T15:37:44.908Z,17.20
2019-01-02T15:40:14.755Z,16.07
2019-01-02T15:42:44.750Z,15.03
2019-01-02T15:45:14.491Z,14.03
2019-01-02T15:47:44.242Z,14.17
2019-01-02T15:50:14.018Z,16.27
2019-01-02T15:52:43.777Z,13.40
2019-01-02T15:55:13.618Z,17.87
2019-01-02T15:57:43.322Z,20.27
2019-01-02T16:03:54.605Z,15.17
2019-01-02T16:06:24.273Z,17.50
2019-01-02T16:08:54.001Z,18.80
2019-01-02T16:11:23.949Z,21.33
2019-01-02T16:13:53.913Z,14.30
2019-01-02T16:16:23.824Z,17.97
2019-01-02T16:18:53.542Z,21.77
2019-01-02T16:21:23.526Z,28.97
2019-01-02T16:23:55.549Z,19.87
2019-01-02T16:26:25.314Z,29.10
2019-01-02T16:28:55.372Z,43.87
2019-01-02T16:31:25.136Z,28.03
2019-01-02T16:33:54.907Z,37.60
2019-01-02T16:36:30.303Z,29.43
2019-01-02T16:39:00.263Z,45.77
2019-01-02T16:41:30.086Z,53.93
2019-01-02T16:44:00.294Z,35.30
2019-01-02T16:46:30.430Z,26.70
2019-01-02T16:49:00.485Z,20.17
2019-01-02T16:51:30.266Z,21.67
2019-01-02T16:54:02.683Z,19.13
2019-01-02T16:56:32.698Z,15.83
2019-01-02T16:59:03.010Z,16.33
2019-01-02T17:01:32.984Z,18.60
2019-01-02T17:04:03.133Z,14.40
2019-01-02T17:06:32.838Z,16.47
2019-01-02T17:09:02.554Z,14.67
2019-01-02T17:11:32.266Z,11.77
2019-01-02T17:14:02.086Z,11.57
2019-01-02T17:16:31.782Z,13.27
2019-01-02T17:19:01.519Z,14.37
2019-01-02T17:21:31.634Z,16.93
2019-01-02T17:24:01.407Z,18.77
2019-01-02T17:26:31.181Z,16.67
2019-01-02T17:29:01.107Z,13.37
2019-01-02T17:31:31.035Z,23.13
2019-01-02T17:34:01.089Z,20.73
2019-01-02T17:36:31.534Z,21.40
2019-01-02T17:39:02.133Z,21.57
2019-01-02T17:41:31.964Z,24.07
2019-01-02T17:44:03.671Z,19.60
2019-01-02T17:46:33.801Z,33.37
2019-01-02T17:49:03.756Z,34.83
2019-01-02T17:51:33.769Z,20.33
2019-01-02T17:54:03.670Z,18.90
2019-01-02T17:56:33.645Z,15.63
2019-01-02T17:59:06.538Z,11.37
2019-01-02T18:01:36.486Z,17.17
2019-01-02T18:04:06.266Z,20.43
2019-01-02T18:06:36.347Z,17.67
2019-01-02T18:09:08.145Z,19.37
2019-01-02T18:11:37.958Z,22.20
2019-01-02T18:14:07.850Z,18.87
2019-01-02T18:16:37.609Z,23.90
2019-01-02T18:19:07.394Z,25.17
2019-01-02T18:21:37.166Z,27.57
2019-01-02T18:24:06.950Z,24.53
2019-01-02T18:26:39.838Z,22.23
2019-01-02T18:29:09.782Z,25.40
2019-01-02T18:31:39.520Z,26.23
2019-01-02T18:34:09.471Z,20.67
2019-01-02T18:36:39.609Z,16.07
2019-01-02T18:39:09.802Z,18.60
2019-01-02T18:41:39.547Z,27.40
2019-01-02T18:44:09.210Z,18.43
2019-01-02T18:46:38.989Z,17.57
2019-01-02T18:49:08.774Z,21.33
2019-01-02T18:51:38.679Z,23.47
2019-01-02T18:54:08.475Z,23.10
2019-01-02T18:56:38.515Z,20.80
2019-01-02T18:59:08.312Z,20.67
2019-01-02T19:01:38.030Z,23.20
2019-01-02T19:04:07.795Z,22.73
2019-01-02T19:06:37.823Z,23.03
2019-01-02T19:09:08.315Z,16.17
2019-01-02T19:11:38.038Z,15.87
2019-01-02T19:14:07.796Z,13.13
2019-01-02T19:16:37.604Z,15.33
2019-01-02T19:19:07.368Z,15.03
2019-01-02T19:21:37.724Z,16.23
2019-01-02T19:24:07.483Z,17.80
2019-01-02T19:26:37.196Z,18.53
2019-01-02T19:29:07.238Z,19.20
2019-01-02T19:31:37.026Z,14.67
2019-01-02T19:34:06.705Z,16.87
2019-01-02T19:36:36.414Z,14.90
2019-01-02T19:39:07.526Z,17.30
2019-01-02T19:41:37.614Z,19.73
2019-01-02T19:44:07.743Z,29.10
2019-01-02T19:46:37.695Z,38.47
2019-01-02T19:49:07.425Z,37.17
2019-01-02T19:51:37.146Z,24.03
2019-01-02T19:54:06.921Z,22.93
2019-01-02T19:56:36.694Z,40.13
2019-01-02T19:59:06.458Z,28.37
2019-01-02T20:01:36.173Z,22.80
2019-01-02T20:04:06.172Z,27.83
2019-01-02T20:06:35.919Z,34.03
2019-01-02T20:09:08.061Z,31.07
2019-01-02T20:11:37.798Z,22.67
2019-01-02T20:14:07.502Z,21.23
2019-01-02T20:16:37.265Z,23.77
2019-01-02T20:19:07.030Z,19.50
2019-01-02T20:21:36.882Z,20.27
2019-01-02T20:24:06.845Z,25.07
2019-01-02T20:26:36.559Z,23.97
2019-01-02T20:29:06.363Z,19.73
2019-01-02T20:31:36.074Z,20.87
2019-01-02T20:34:05.757Z,22.40
2019-01-02T20:36:40.668Z,26.57
2019-01-02T20:39:08.638Z,17.93
2019-01-02T20:41:38.674Z,21.67
2019-01-02T20:44:09.682Z,18.60
2019-01-02T20:46:39.710Z,15.63
2019-01-02T20:49:09.518Z,16.17
2019-01-02T20:51:39.822Z,18.40
2019-01-02T20:54:09.970Z,19.27
2019-01-02T20:56:39.999Z,21.67
2019-01-02T20:59:09.955Z,25.07
2019-01-02T21:01:39.717Z,27.20
2019-01-02T21:04:09.514Z,28.57
2019-01-02T21:06:39.650Z,35.07
2019-01-02T21:09:09.519Z,31.23
2019-01-02T21:11:39.553Z,32.97
2019-01-02T21:14:09.594Z,26.90
2019-01-02T21:16:39.305Z,26.93
2019-01-02T21:19:09.358Z,36.80
2019-01-02T21:21:39.204Z,26.90
2019-01-02T21:24:09.111Z,34.00
2019-01-02T21:26:39.141Z,30.60
2019-01-02T21:29:08.954Z,32.87
2019-01-02T21:31:38.849Z,57.40
2019-01-02T21:34:08.555Z,57.03
2019-01-02T21:36:38.333Z,64.10
2019-01-02T21:39:08.328Z,65.97
2019-01-02T21:41:38.045Z,72.50
2019-01-02T21:44:10.405Z,50.73
2019-01-02T21:46:40.423Z,46.30
2019-01-02T21:49:10.802Z,17.23
2019-01-02T21:51:40.812Z,15.60
2019-01-02T21:54:10.769Z,15.27
2019-01-02T21:56:40.590Z,12.57
2019-01-02T21:59:10.302Z,14.57
2019-01-02T22:01:40.094Z,12.93
2019-01-02T22:04:10.078Z,13.33
2019-01-02T22:06:39.763Z,10.87
2019-01-02T22:09:16.299Z,9.67
2019-01-02T22:11:46.655Z,9.77
2019-01-02T22:14:17.163Z,16.70
2019-01-02T22:16:46.994Z,11.47
2019-01-02T22:19:17.026Z,9.77
2019-01-02T22:21:46.838Z,9.23
2019-01-02T22:24:16.661Z,10.43
2019-01-02T22:26:46.773Z,10.10
2019-01-02T22:29:16.474Z,14.90
2019-01-02T22:31:46.261Z,18.43
2019-01-02T22:34:16.307Z,11.97
2019-01-02T22:36:46.098Z,15.53
2019-01-02T22:39:16.067Z,19.97
2019-01-02T22:41:48.206Z,22.90
2019-01-02T22:44:18.457Z,23.90
2019-01-02T22:46:48.229Z,17.97
2019-01-02T22:49:18.241Z,16.90
2019-01-02T22:51:48.138Z,16.20
2019-01-02T22:54:19.510Z,20.27
2019-01-02T22:56:49.337Z,16.03
2019-01-02T22:59:19.179Z,25.37
2019-01-02T23:01:55.098Z,21.97
2019-01-02T23:04:44.297Z,43.03
2019-01-02T23:07:36.409Z,27.70
2019-01-02T23:10:24.018Z,39.83
2019-01-02T23:13:14.010Z,50.70
2019-01-02T23:16:01.809Z,29.57
2019-01-02T23:18:53.694Z,31.13
2019-01-02T23:21:41.704Z,29.37
2019-01-02T23:24:45.871Z,42.73
2019-01-02T23:27:33.445Z,39.67
2019-01-02T23:30:21.117Z,43.67
2019-01-02T23:33:08.692Z,24.47
2019-01-02T23:36:04.026Z,34.10
2019-01-02T23:38:57.457Z,67.70
2019-01-02T23:41:58.235Z,41.73
2019-01-02T23:44:46.259Z,38.77
2019-01-02T23:47:34.270Z,38.27
2019-01-02T23:50:34.828Z,32.97
2019-01-02T23:53:32.310Z,24.67
2019-01-02T23:56:35.582Z,35.50
2019-01-02T23:59:23.230Z,31.23
